createdAt,value
2019-04-03T00:01:12.810Z,13.08
2019-04-03T00:06:14.837Z,12.98
2019-04-03T00:11:17.200Z,12.90
2019-04-03T00:16:19.248Z,12.83
2019-04-03T00:21:21.292Z,12.76
2019-04-03T00:26:23.361Z,12.70
2019-04-03T00:31:25.530Z,12.65
2019-04-03T00:36:27.568Z,12.65
2019-04-03T00:41:29.780Z,12.52
2019-04-03T00:46:31.812Z,12.58
2019-04-03T00:51:33.830Z,12.48
2019-04-03T00:56:35.907Z,12.43
2019-04-03T01:01:37.955Z,12.37
2019-04-03T01:06:40.394Z,12.39
2019-04-03T01:11:42.453Z,12.43
2019-04-03T01:16:44.516Z,12.32
2019-04-03T01:21:46.669Z,12.36
2019-04-03T01:26:48.711Z,12.44
2019-04-03T01:31:50.740Z,12.33
2019-04-03T01:36:52.948Z,12.47
2019-04-03T01:41:55.362Z,12.35
2019-04-03T01:46:58.055Z,12.47
2019-04-03T01:52:00.842Z,12.50
2019-04-03T01:57:05.989Z,12.40
2019-04-03T02:02:08.527Z,12.43
2019-04-03T02:07:11.183Z,12.51
2019-04-03T02:12:13.261Z,12.43
2019-04-03T02:17:15.330Z,12.49
2019-04-03T02:22:17.425Z,12.43
2019-04-03T02:27:19.602Z,12.38
2019-04-03T02:32:24.120Z,12.28
2019-04-03T02:37:25.578Z,12.27
2019-04-03T02:42:28.132Z,12.23
2019-04-03T02:47:32.282Z,12.23
2019-04-03T02:52:34.716Z,12.32
2019-04-03T02:57:36.749Z,12.19
2019-04-03T03:02:38.879Z,12.22
2019-04-03T03:07:42.026Z,12.07
2019-04-03T03:12:44.557Z,11.92
2019-04-03T03:17:47.658Z,11.95
2019-04-03T03:22:51.181Z,11.83
2019-04-03T03:27:54.020Z,11.86
2019-04-03T03:33:22.318Z,11.84
2019-04-03T03:38:02.086Z,11.71
2019-04-03T03:43:05.858Z,11.75
2019-04-03T03:48:10.473Z,11.71
2019-04-03T03:53:13.198Z,11.84
2019-04-03T03:58:17.290Z,11.68
2019-04-03T04:03:20.453Z,11.69
2019-04-03T04:08:22.492Z,11.66
2019-04-03T04:13:25.502Z,11.68
2019-04-03T04:18:27.820Z,11.47
2019-04-03T04:23:30.510Z,11.61
2019-04-03T04:28:33.104Z,11.41
2019-04-03T04:33:35.479Z,11.47
2019-04-03T04:38:37.569Z,11.49
2019-04-03T04:43:39.992Z,11.30
2019-04-03T04:48:42.187Z,11.25
2019-04-03T04:53:51.916Z,11.22
2019-04-03T04:58:54.083Z,11.43
2019-04-03T05:03:56.131Z,11.18
2019-04-03T05:08:58.284Z,11.00
2019-04-03T05:14:00.516Z,11.01
2019-04-03T05:19:09.662Z,11.06
2019-04-03T05:24:12.629Z,11.12
2019-04-03T05:29:10.867Z,10.95
2019-04-03T05:34:13.705Z,11.05
2019-04-03T05:39:16.177Z,11.05
2019-04-03T05:44:18.322Z,11.07
2019-04-03T05:49:20.660Z,11.05
2019-04-03T05:54:22.725Z,11.11
2019-04-03T05:59:24.872Z,11.21
2019-04-03T06:04:26.939Z,11.19
2019-04-03T06:09:29.074Z,11.10
2019-04-03T06:14:31.172Z,11.23
2019-04-03T06:19:39.528Z,11.28
2019-04-03T06:24:40.819Z,11.17
2019-04-03T06:29:42.997Z,11.25
2019-04-03T06:34:45.105Z,11.41
2019-04-03T06:39:47.191Z,11.49
2019-04-03T06:44:49.501Z,11.37
2019-04-03T06:49:51.591Z,11.41
2019-04-03T06:54:54.058Z,11.38
2019-04-03T06:59:56.153Z,11.51
2019-04-03T07:04:58.198Z,11.57
2019-04-03T07:10:00.362Z,11.76
2019-04-03T07:15:03.051Z,11.89
2019-04-03T07:20:13.412Z,11.77
2019-04-03T07:25:09.839Z,11.72
2019-04-03T07:30:13.871Z,11.78
2019-04-03T07:35:17.415Z,11.85
2019-04-03T07:40:20.939Z,11.67
2019-04-03T07:45:23.490Z,11.81
2019-04-03T07:50:25.558Z,11.92
2019-04-03T07:55:28.450Z,11.84
2019-04-03T08:00:31.126Z,12.04
2019-04-03T08:05:33.355Z,12.13
2019-04-03T08:10:37.257Z,12.07
2019-04-03T08:15:39.372Z,12.08
2019-04-03T08:20:41.568Z,12.23
2019-04-03T08:25:47.189Z,12.21
2019-04-03T08:30:47.996Z,12.39
2019-04-03T08:35:50.222Z,12.54
2019-04-03T08:40:53.450Z,12.51
2019-04-03T08:45:55.712Z,12.45
2019-04-03T08:50:58.423Z,12.41
2019-04-03T08:56:01.483Z,12.47
2019-04-03T09:01:05.313Z,12.53
2019-04-03T09:06:07.725Z,12.50
2019-04-03T09:11:09.797Z,12.49
2019-04-03T09:16:12.048Z,12.31
2019-04-03T09:21:15.130Z,12.13
2019-04-03T09:26:18.064Z,12.03
2019-04-03T09:31:20.808Z,11.85
2019-04-03T09:36:22.921Z,11.48
2019-04-03T09:41:25.090Z,11.08
2019-04-03T09:46:27.298Z,10.87
2019-04-03T09:51:31.114Z,10.49
2019-04-03T09:56:33.172Z,10.69
2019-04-03T10:01:35.261Z,10.59
2019-04-03T10:06:37.362Z,10.34
2019-04-03T10:11:39.786Z,9.81
2019-04-03T10:16:42.234Z,9.81
2019-04-03T10:21:44.257Z,9.75
2019-04-03T10:26:47.061Z,9.75
2019-04-03T10:31:49.495Z,9.72
2019-04-03T10:36:51.701Z,9.44
2019-04-03T10:41:53.884Z,9.18
2019-04-03T10:46:56.579Z,9.58
2019-04-03T10:51:58.699Z,9.03
2019-04-03T10:57:03.086Z,9.36
2019-04-03T11:02:05.245Z,9.69
2019-04-03T11:07:07.308Z,9.74
2019-04-03T11:12:10.576Z,10.25
2019-04-03T11:17:12.721Z,10.25
2019-04-03T11:22:16.351Z,10.34
2019-04-03T11:27:18.848Z,10.34
2019-04-03T11:32:22.866Z,10.02
2019-04-03T11:37:25.411Z,10.22
2019-04-03T11:42:29.894Z,10.22
2019-04-03T11:47:31.560Z,11.42
2019-04-03T11:52:33.754Z,11.32
2019-04-03T11:57:36.218Z,11.90
2019-04-03T12:02:39.479Z,11.65
2019-04-03T12:07:42.278Z,12.33
2019-04-03T12:12:44.372Z,11.25
2019-04-03T12:17:46.480Z,11.02
2019-04-03T12:22:48.703Z,10.74
2019-04-03T12:27:50.841Z,11.17
2019-04-03T12:32:52.930Z,12.12
2019-04-03T12:37:55.006Z,11.96
2019-04-03T12:42:57.053Z,11.24
2019-04-03T12:47:59.187Z,10.85
2019-04-03T12:53:01.283Z,10.78
2019-04-03T12:58:04.688Z,10.84
2019-04-03T13:03:08.010Z,11.10
2019-04-03T13:08:10.110Z,10.99
2019-04-03T13:13:12.248Z,11.22
2019-04-03T13:18:14.356Z,10.96
2019-04-03T13:23:16.448Z,10.88
2019-04-03T13:28:18.478Z,10.80
2019-04-03T13:33:20.616Z,10.76
2019-04-03T13:38:22.880Z,11.11
2019-04-03T13:43:24.914Z,10.85
2019-04-03T13:48:27.032Z,11.02
2019-04-03T13:53:29.052Z,11.45
2019-04-03T13:58:31.136Z,12.13
2019-04-03T14:03:33.206Z,11.46
2019-04-03T14:08:35.651Z,11.45
2019-04-03T14:13:38.151Z,11.37
2019-04-03T14:18:41.304Z,11.23
2019-04-03T14:23:44.230Z,11.25
2019-04-03T14:28:46.428Z,11.37
2019-04-03T14:33:48.601Z,10.98
2019-04-03T14:38:50.639Z,10.98
2019-04-03T14:43:53.006Z,10.84
2019-04-03T14:48:57.834Z,10.98
2019-04-03T14:53:59.140Z,10.95
2019-04-03T14:59:01.643Z,11.03
2019-04-03T15:04:04.155Z,10.68
2019-04-03T15:09:08.109Z,10.65
2019-04-03T15:14:10.670Z,10.48
2019-04-03T15:19:13.741Z,10.49
2019-04-03T15:24:16.656Z,10.43
2019-04-03T15:29:19.127Z,10.29
2019-04-03T15:34:21.340Z,9.89
2019-04-03T15:39:23.413Z,9.81
2019-04-03T15:44:27.507Z,9.65
2019-04-03T15:49:29.779Z,9.64
2019-04-03T15:54:33.763Z,9.64
2019-04-03T15:59:36.421Z,9.48
2019-04-03T16:04:38.729Z,9.44
2019-04-03T16:09:40.800Z,9.20
2019-04-03T16:14:43.098Z,8.74
2019-04-03T16:19:45.408Z,8.60
2019-04-03T16:24:47.873Z,8.60
2019-04-03T16:29:50.701Z,8.20
2019-04-03T16:34:52.941Z,8.14
2019-04-03T16:39:54.958Z,8.07
2019-04-03T16:44:58.333Z,7.75
2019-04-03T16:50:00.588Z,7.85
2019-04-03T16:55:03.272Z,7.61
2019-04-03T17:00:08.491Z,8.00
2019-04-03T17:05:11.956Z,7.98
2019-04-03T17:10:14.717Z,7.85
2019-04-03T17:15:17.116Z,7.65
2019-04-03T17:20:20.331Z,7.54
2019-04-03T17:25:23.386Z,7.68
2019-04-03T17:30:26.412Z,7.76
2019-04-03T17:35:28.538Z,7.66
2019-04-03T17:40:30.600Z,7.86
2019-04-03T17:45:32.723Z,7.66
2019-04-03T17:50:34.827Z,7.66
2019-04-03T17:55:36.920Z,7.28
2019-04-03T18:00:38.988Z,7.34
2019-04-03T18:05:41.069Z,7.34
2019-04-03T18:10:43.267Z,7.53
2019-04-03T18:15:45.350Z,7.48
2019-04-03T18:20:47.426Z,7.17
2019-04-03T18:25:49.535Z,7.17
2019-04-03T18:30:51.605Z,7.16
2019-04-03T18:35:56.428Z,7.21
2019-04-03T18:40:57.922Z,7.36
2019-04-03T18:46:00.286Z,7.25
2019-04-03T18:51:05.507Z,7.17
2019-04-03T18:56:06.538Z,6.88
2019-04-03T19:01:08.934Z,6.96
2019-04-03T19:06:13.413Z,7.04
2019-04-03T19:11:15.009Z,7.07
2019-04-03T19:16:28.990Z,7.03
2019-04-03T19:21:28.291Z,7.33
2019-04-03T19:26:25.070Z,7.19
2019-04-03T19:31:27.169Z,7.13
2019-04-03T19:36:29.933Z,7.27
2019-04-03T19:41:32.593Z,7.25
2019-04-03T19:46:34.660Z,7.30
2019-04-03T19:51:37.562Z,7.13
2019-04-03T19:56:40.142Z,7.34
2019-04-03T20:01:42.256Z,7.11
2019-04-03T20:06:44.410Z,7.37
2019-04-03T20:11:46.697Z,7.11
2019-04-03T20:16:48.745Z,7.13
2019-04-03T20:21:50.836Z,7.07
2019-04-03T20:26:52.993Z,6.88
2019-04-03T20:31:55.071Z,7.12
2019-04-03T20:36:57.164Z,7.21
2019-04-03T20:41:59.204Z,6.94
2019-04-03T20:47:01.313Z,7.12
2019-04-03T20:52:03.532Z,6.98
2019-04-03T20:57:05.620Z,6.84
2019-04-03T21:02:08.268Z,6.92
2019-04-03T21:07:11.004Z,7.12
2019-04-03T21:12:13.086Z,6.84
2019-04-03T21:17:15.134Z,6.84
2019-04-03T21:22:17.197Z,6.91
2019-04-03T21:27:19.294Z,6.85
2019-04-03T21:32:21.338Z,7.00
2019-04-03T21:37:23.411Z,7.06
2019-04-03T21:42:26.875Z,6.93
2019-04-03T21:47:29.883Z,6.96
2019-04-03T21:52:31.926Z,6.98
2019-04-03T21:57:33.984Z,6.72
2019-04-03T22:02:36.067Z,6.93
2019-04-03T22:07:38.178Z,6.82
2019-04-03T22:12:40.243Z,6.77
2019-04-03T22:17:43.680Z,6.88
2019-04-03T22:22:45.939Z,6.74
2019-04-03T22:27:47.971Z,6.97
2019-04-03T22:32:50.022Z,6.99
2019-04-03T22:37:52.317Z,6.82
2019-04-03T22:42:54.359Z,6.69
2019-04-03T22:47:56.856Z,6.71
2019-04-03T22:52:59.004Z,6.73
2019-04-03T22:58:01.106Z,6.56
2019-04-03T23:03:03.483Z,6.56
2019-04-03T23:08:05.733Z,6.67
2019-04-03T23:13:07.826Z,6.43
2019-04-03T23:18:09.904Z,6.45
2019-04-03T23:23:12.192Z,6.48
2019-04-03T23:28:14.308Z,6.16
2019-04-03T23:33:16.897Z,6.35
2019-04-03T23:38:19.750Z,6.33
2019-04-03T23:43:21.817Z,6.32
2019-04-03T23:48:23.896Z,6.23
2019-04-03T23:53:26.025Z,6.42
2019-04-03T23:58:28.160Z,6.29
